createdAt,value
2024-01-29T00:04:52.357Z,46.1
2024-01-29T00:10:49.409Z,46.1
2024-01-29T00:16:44.863Z,46
2024-01-29T00:22:39.734Z,45.9
2024-01-29T00:28:34.116Z,45.9
2024-01-29T00:34:14.531Z,45.9
2024-01-29T00:40:14.093Z,45.8
2024-01-29T00:46:07.972Z,45.8
2024-01-29T00:51:53.027Z,45.8
2024-01-29T00:57:49.687Z,45.7
2024-01-29T01:03:49.016Z,45.7
2024-01-29T01:09:46.018Z,45.6
2024-01-29T01:15:39.676Z,45.6
2024-01-29T01:21:20.199Z,45.6
2024-01-29T01:27:14.180Z,45.5
2024-01-29T01:33:08.616Z,45.4
2024-01-29T01:39:03.577Z,45.4
2024-01-29T01:45:00.326Z,45.4
2024-01-29T01:51:03.081Z,45.3
2024-01-29T01:56:57.299Z,45.3
2024-01-29T02:02:55.743Z,45.3
2024-01-29T02:08:51.149Z,45.2
2024-01-29T02:14:45.268Z,45.1
2024-01-29T02:20:40.547Z,45.1
2024-01-29T02:26:34.344Z,45.1
2024-01-29T02:32:29.148Z,45.1
2024-01-29T02:38:25.905Z,45
2024-01-29T02:44:20.389Z,44.9
2024-01-29T02:50:00.524Z,44.9
2024-01-29T02:55:55.086Z,44.9
2024-01-29T03:01:49.467Z,44.8
2024-01-29T03:07:49.138Z,44.8
2024-01-29T03:13:43.249Z,44.8
2024-01-29T03:19:24.717Z,44.7
2024-01-29T03:25:23.066Z,44.6
2024-01-29T03:31:16.922Z,44.6
2024-01-29T03:37:11.482Z,44.6
2024-01-29T03:42:50.201Z,44.6
2024-01-29T03:48:44.657Z,44.6
2024-01-29T03:54:39.304Z,44.6
2024-01-29T04:00:36.925Z,44.6
2024-01-29T04:06:20.590Z,44.6
2024-01-29T04:12:14.332Z,44.6
2024-01-29T04:18:09.257Z,44.6
2024-01-29T04:24:08.787Z,44.6
2024-01-29T04:29:50.286Z,44.5
2024-01-29T04:35:46.667Z,44.4
2024-01-29T04:41:40.346Z,44.4
2024-01-29T04:47:35.947Z,44.4
2024-01-29T04:53:16.668Z,44.4
2024-01-29T04:58:55.845Z,44.4
2024-01-29T05:04:23.871Z,44.4
2024-01-29T05:10:03.158Z,44.3
2024-01-29T05:15:27.077Z,44.3
2024-01-29T05:20:51.702Z,44.3
2024-01-29T05:26:49.139Z,44.3
2024-01-29T05:32:43.376Z,44.2
2024-01-29T05:38:16.957Z,44.2
2024-01-29T05:43:55.590Z,44.2
2024-01-29T05:49:35.135Z,44.1
2024-01-29T05:55:29.249Z,44.1
2024-01-29T06:01:08.320Z,44.1
2024-01-29T06:06:48.497Z,44.1
2024-01-29T06:12:32.569Z,44
2024-01-29T06:18:11.281Z,44
2024-01-29T06:24:32.188Z,44
2024-01-29T06:30:14.264Z,43.9
2024-01-29T06:36:12.290Z,43.9
2024-01-29T06:42:06.267Z,43.9
2024-01-29T06:48:02.939Z,43.8
2024-01-29T06:53:58.391Z,43.8
2024-01-29T06:59:52.320Z,43.8
2024-01-29T07:05:49.162Z,43.8
2024-01-29T07:11:47.727Z,43.7
2024-01-29T07:17:42.286Z,43.7
2024-01-29T07:23:38.311Z,43.7
2024-01-29T07:29:19.194Z,43.6
2024-01-29T07:35:14.891Z,43.6
2024-01-29T07:41:11.906Z,43.6
2024-01-29T07:47:06.495Z,43.6
2024-01-29T07:53:03.009Z,43.5
2024-01-29T07:58:58.764Z,43.5
2024-01-29T08:04:55.637Z,43.4
2024-01-29T08:10:50.584Z,43.4
2024-01-29T08:16:46.040Z,43.4
2024-01-29T08:22:47.448Z,43.4
2024-01-29T08:28:41.742Z,43.4
2024-01-29T08:34:38.690Z,43.3
2024-01-29T08:40:34.040Z,43.3
2024-01-29T08:46:30.058Z,43.3
2024-01-29T08:52:26.183Z,43.3
2024-01-29T08:58:26.383Z,43.2
2024-01-29T09:04:21.766Z,43.1
2024-01-29T09:10:26.675Z,43.1
2024-01-29T09:16:22.920Z,43.1
2024-01-29T09:22:03.588Z,43.1
2024-01-29T09:27:58.986Z,43.1
2024-01-29T09:34:08.123Z,43
2024-01-29T09:40:02.744Z,43
2024-01-29T09:45:59.604Z,42.9
2024-01-29T09:51:26.520Z,42.9
2024-01-29T09:57:23.849Z,42.9
2024-01-29T10:03:21.080Z,42.9
2024-01-29T10:09:02.018Z,42.8
2024-01-29T10:14:56.321Z,42.8
2024-01-29T10:20:51.574Z,42.8
2024-01-29T10:26:30.958Z,42.9
2024-01-29T10:31:56.381Z,43.6
2024-01-29T10:37:07.416Z,44.6
2024-01-29T10:43:09.056Z,45.5
2024-01-29T10:48:48.480Z,46.5
2024-01-29T10:54:28.387Z,46.9
2024-01-29T11:00:09.570Z,47
2024-01-29T11:06:00.528Z,47
2024-01-29T11:11:41.419Z,47
2024-01-29T11:17:22.362Z,47
2024-01-29T11:23:21.626Z,47
2024-01-29T11:29:04.082Z,46.9
2024-01-29T11:35:04.333Z,46.9
2024-01-29T11:41:09.848Z,46.9
2024-01-29T11:47:07.019Z,46.9
2024-01-29T11:53:16.168Z,46.9
2024-01-29T11:58:58.262Z,46.8
2024-01-29T12:04:38.243Z,46.8
2024-01-29T12:10:37.232Z,46.8
2024-01-29T12:16:31.586Z,46.8
2024-01-29T12:22:28.780Z,46.7
2024-01-29T12:28:25.616Z,46.7
2024-01-29T12:34:22.965Z,46.6
2024-01-29T12:40:05.126Z,46.6
2024-01-29T12:45:59.296Z,46.6
2024-01-29T12:51:55.737Z,46.6
2024-01-29T12:57:34.380Z,46.5
2024-01-29T13:03:20.051Z,46.5
2024-01-29T13:09:17.394Z,46.4
2024-01-29T13:15:15.103Z,46.4
2024-01-29T13:21:10.821Z,46.4
2024-01-29T13:26:52.108Z,46.4
2024-01-29T13:32:49.837Z,46.3
2024-01-29T13:38:30.619Z,46.3
2024-01-29T13:44:28.313Z,46.3
2024-01-29T13:50:25.088Z,46.3
2024-01-29T13:56:21.818Z,46.3
2024-01-29T14:02:16.992Z,46.2
2024-01-29T14:08:14.165Z,46.1
2024-01-29T14:14:12.369Z,46.1
2024-01-29T14:20:21.074Z,46.1
2024-01-29T14:26:15.632Z,46.1
2024-01-29T14:32:12.464Z,46
2024-01-29T14:38:12.900Z,46
2024-01-29T14:44:08.688Z,45.9
2024-01-29T14:50:06.693Z,45.9
2024-01-29T14:56:02.464Z,45.9
2024-01-29T15:01:59.636Z,45.9
2024-01-29T15:07:56.576Z,45.8
2024-01-29T15:13:53.380Z,45.8
2024-01-29T15:19:50.779Z,45.8
2024-01-29T15:25:48.598Z,45.8
2024-01-29T15:31:43.694Z,45.7
2024-01-29T15:37:38.791Z,45.7
2024-01-29T15:43:35.262Z,45.6
2024-01-29T15:49:35.858Z,45.6
2024-01-29T15:55:33.095Z,45.6
2024-01-29T16:01:28.183Z,45.5
2024-01-29T16:07:23.005Z,45.5
2024-01-29T16:13:17.338Z,45.5
2024-01-29T16:19:16.303Z,45.4
2024-01-29T16:25:11.172Z,45.4
2024-01-29T16:31:05.806Z,45.4
2024-01-29T16:37:03.024Z,45.3
2024-01-29T16:43:00.775Z,45.3
2024-01-29T16:48:55.361Z,45.3
2024-01-29T16:54:51.167Z,45.2
2024-01-29T17:00:47.812Z,45.1
2024-01-29T17:06:44.047Z,45
2024-01-29T17:12:39.710Z,44.9
2024-01-29T17:18:39.905Z,44.9
2024-01-29T17:24:35.674Z,44.9
2024-01-29T17:30:29.799Z,44.8
2024-01-29T17:36:26.692Z,44.8
2024-01-29T17:42:21.004Z,44.8
2024-01-29T17:48:17.507Z,44.7
2024-01-29T17:54:15.921Z,44.6
2024-01-29T18:00:10.723Z,44.6
2024-01-29T18:06:06.219Z,44.6
2024-01-29T18:11:45.392Z,44.6
2024-01-29T18:17:26.765Z,44.5
2024-01-29T18:23:06.635Z,44.4
2024-01-29T18:28:48.218Z,44.4
2024-01-29T18:34:42.810Z,44.4
2024-01-29T18:40:37.496Z,44.4
2024-01-29T18:46:33.537Z,44.3
2024-01-29T18:52:30.097Z,44.3
2024-01-29T18:58:24.529Z,44.3
2024-01-29T19:04:23.801Z,44.2
2024-01-29T19:10:21.611Z,44.1
2024-01-29T19:16:20.292Z,44.1
2024-01-29T19:22:00.283Z,43.9
2024-01-29T19:27:38.780Z,43.8
2024-01-29T19:33:18.424Z,43.8
2024-01-29T19:39:14.729Z,43.7
2024-01-29T19:45:08.888Z,43.7
2024-01-29T19:51:06.930Z,43.6
2024-01-29T19:57:01.242Z,43.6
2024-01-29T20:02:56.771Z,43.6
2024-01-29T20:08:52.330Z,43.5
2024-01-29T20:14:48.725Z,43.5
2024-01-29T20:20:44.961Z,43.4
2024-01-29T20:26:39.382Z,43.4
2024-01-29T20:32:35.353Z,43.4
2024-01-29T20:38:32.493Z,43.3
2024-01-29T20:44:45.611Z,43.3
2024-01-29T20:50:27.095Z,43.3
2024-01-29T20:56:33.773Z,43.2
2024-01-29T21:02:28.882Z,43.2
2024-01-29T21:08:25.584Z,43.1
2024-01-29T21:14:07.334Z,43.1
2024-01-29T21:20:02.459Z,43.1
2024-01-29T21:25:57.374Z,43
2024-01-29T21:31:51.551Z,42.9
2024-01-29T21:37:48.739Z,42.9
2024-01-29T21:43:27.364Z,42.9
2024-01-29T21:49:22.613Z,42.9
2024-01-29T21:55:17.100Z,42.8
2024-01-29T22:01:11.997Z,42.8
2024-01-29T22:06:54.121Z,42.8
2024-01-29T22:12:33.364Z,42.7
2024-01-29T22:18:27.888Z,42.7
2024-01-29T22:24:08.003Z,42.6
2024-01-29T22:30:05.654Z,42.6
2024-01-29T22:36:00.385Z,42.6
2024-01-29T22:41:39.163Z,42.5
2024-01-29T22:47:33.650Z,42.5
2024-01-29T22:53:15.658Z,42.4
2024-01-29T22:58:54.193Z,42.4
2024-01-29T23:04:51.713Z,42.4
2024-01-29T23:10:46.304Z,42.4
2024-01-29T23:16:40.239Z,42.3
2024-01-29T23:22:20.223Z,42.3
2024-01-29T23:28:16.788Z,42.3
2024-01-29T23:34:11.363Z,42.2
2024-01-29T23:40:05.735Z,42.2
2024-01-29T23:45:59.436Z,42.2
2024-01-29T23:51:22.710Z,42.1
2024-01-29T23:57:01.957Z,42.1
